Overview Statistics Trail Chart Weather Telemetry Raw packets
 

This is the latest recevied weather packets stored in our database for station/object HA2SKA-1. If no packets are shown the sender has not sent any weather packets the latest 10 day(s).

<< 24 25 26 27 28 29 30 >>
Time Temp. Humidity Pressure Rain* Wind** Luminosity Snow
1788084310 32.78° C 43% 1019.4 hPa - - - -
1788083410 32.22° C 44% 1019.5 hPa - - - -
1788082510 30.56° C 48% 1019.7 hPa - - - -
1788081613 32.78° C 45% 1019.8 hPa - - - -
1788080709 31.67° C 47% 1019.8 hPa - - - -
1788079809 32.22° C 45% 1019.8 hPa - - - -
1788078909 32.22° C 45% 1019.9 hPa - - - -
1788078009 31.67° C 44% 1019.9 hPa - - - -
1788077109 31.11° C 44% 1020 hPa - - - -
1788076209 31.11° C 44% 1020 hPa - - - -
1788075309 30.56° C 43% 1019.8 hPa - - - -
1788074409 30.56° C 46% 1019.7 hPa - - - -
1788073509 30.56° C 46% 1019.7 hPa - - - -
1788072609 28.89° C 53% 1019.5 hPa - - - -
1788071708 27.78° C 59% 1019.6 hPa - - - -
1788070808 27.22° C 64% 1019.7 hPa - - - -
1788069908 26.67° C 66% 1019.6 hPa - - - -
1788069008 25° C 69% 1019.5 hPa - - - -
1788068108 23.89° C 75% 1019.3 hPa - - - -
1788067208 22.78° C 84% 1019.3 hPa - - - -
1788066308 22.22° C 86% 1019.3 hPa - - - -
1788065408 20.56° C 94% 1019.2 hPa - - - -
1788064508 19.44° C 100% 1019.1 hPa - - - -
1788063608 20° C 96% 1019 hPa - - - -
1788062708 18.89° C 100% 1019 hPa - - - -

* Rain since midnight (hover to see other rain measurements)
** Current wind speed in m/s (hover to see current wind gust speed)